Time;durP1;ratioP1;P1;durP2;ratioP2;P2;SDS_P1;SDS_P2;PMS_P1;PMS_P2;Temp;Humidity;BMP_temperature;BMP_pressure;BME280_temperature;BME280_humidity;BME280_pressure;Samples;Min_cycle;Max_cycle;Signal;HPM_P1;HPM_P2
2021/06/11 00:00:56;;;;;;;5.80;5.00;;;;;;;13.79;69.76;100505.55;102385;1115;80344;-59
2021/06/11 00:03:06;;;;;;;6.40;5.30;;;;;;;13.74;69.93;100508.02;102398;1115;65454;-58
2021/06/11 00:05:14;;;;;;;6.60;5.60;;;;;;;13.65;69.99;100509.28;102391;1115;69064;-63
2021/06/11 00:07:21;;;;;;;6.60;5.50;;;;;;;13.58;70.18;100504.67;102401;1116;85600;-63
2021/06/11 00:09:28;;;;;;;7.00;6.20;;;;;;;13.48;70.37;100501.53;102407;1115;74245;-64
2021/06/11 00:11:36;;;;;;;9.00;5.60;;;;;;;13.34;70.75;100502.54;102382;1115;80732;-63
2021/06/11 00:13:43;;;;;;;8.90;5.40;;;;;;;13.30;70.72;100501.27;102362;1115;65556;-64
2021/06/11 00:15:54;;;;;;;6.20;5.60;;;;;;;13.27;70.76;100506.25;102386;1115;68906;-65
2021/06/11 00:18:01;;;;;;;8.20;5.80;;;;;;;13.24;70.89;100491.22;102370;1115;86248;-64
2021/06/11 00:20:11;;;;;;;6.60;6.00;;;;;;;13.24;70.93;100504.78;102353;1115;75904;-64
2021/06/11 00:22:18;;;;;;;6.90;6.30;;;;;;;13.28;71.04;100497.08;102399;1115;81493;-65
2021/06/11 00:24:26;;;;;;;6.00;5.30;;;;;;;13.27;71.14;100500.82;102381;1115;66110;-64
2021/06/11 00:26:33;;;;;;;8.30;6.00;;;;;;;13.24;71.23;100507.50;102421;1115;69031;-64
2021/06/11 00:28:43;;;;;;;6.40;5.20;;;;;;;13.24;71.29;100503.97;102368;1115;87141;-59
2021/06/11 00:30:50;;;;;;;7.30;4.90;;;;;;;13.25;71.19;100502.91;102395;1115;75999;-59
2021/06/11 00:33:00;;;;;;;8.20;4.90;;;;;;;13.24;71.31;100507.50;102359;1115;82211;-59
2021/06/11 00:35:11;;;;;;;6.40;5.60;;;;;;;13.21;71.30;100507.09;102376;1115;66601;-64
2021/06/11 00:37:18;;;;;;;7.70;5.20;;;;;;;13.19;71.25;100509.98;102394;1115;67319;-64
2021/06/11 00:39:25;;;;;;;7.50;5.70;;;;;;;13.20;71.20;100510.83;102406;1115;84782;-64
2021/06/11 00:41:32;;;;;;;6.80;5.60;;;;;;;13.22;71.38;100504.16;102395;1115;74988;-64
2021/06/11 00:43:39;;;;;;;8.60;6.30;;;;;;;13.23;71.33;100511.27;102401;1115;80019;-60
2021/06/11 00:45:47;;;;;;;9.40;7.00;;;;;;;13.20;71.56;100502.69;102415;1116;65729;-60
2021/06/11 00:47:54;;;;;;;7.30;6.30;;;;;;;13.10;71.72;100500.38;102404;1116;67811;-60
2021/06/11 00:50:02;;;;;;;6.50;5.20;;;;;;;13.11;71.53;100498.48;102393;1115;85838;-65
2021/06/11 00:52:10;;;;;;;6.90;5.80;;;;;;;13.09;71.76;100495.98;102392;1115;75109;-64
2021/06/11 00:54:21;;;;;;;7.20;5.40;;;;;;;13.06;71.71;100480.08;102368;1115;81501;-63
2021/06/11 00:56:28;;;;;;;6.90;5.40;;;;;;;13.02;71.84;100479.64;102402;1113;66175;-63
2021/06/11 00:58:35;;;;;;;6.60;4.90;;;;;;;13.03;71.79;100480.48;102389;1115;69452;-59
2021/06/11 01:00:48;;;;;;;6.70;5.10;;;;;;;13.05;71.92;100478.40;102385;1116;85787;-59
2021/06/11 01:02:55;;;;;;;5.70;5.20;;;;;;;13.05;72.02;100480.30;102410;1115;75222;-59
2021/06/11 01:05:03;;;;;;;5.90;5.00;;;;;;;13.07;72.08;100484.52;102372;1115;81244;-63
2021/06/11 01:07:10;;;;;;;6.40;5.20;;;;;;;13.06;72.00;100485.51;102407;1115;66391;-64
2021/06/11 01:09:18;;;;;;;6.70;5.40;;;;;;;13.06;72.00;100480.08;102407;1115;69370;-60
2021/06/11 01:11:26;;;;;;;7.30;5.10;;;;;;;13.05;71.98;100486.53;102397;1116;86790;-59
2021/06/11 01:13:34;;;;;;;6.80;5.30;;;;;;;13.01;72.04;100483.41;102393;1116;75225;-61
2021/06/11 01:15:42;;;;;;;6.00;5.40;;;;;;;12.96;72.03;100491.30;102389;1115;82256;-60
2021/06/11 01:17:52;;;;;;;7.90;5.30;;;;;;;12.87;71.91;100495.24;102435;1115;65229;-59
2021/06/11 01:20:00;;;;;;;7.20;6.30;;;;;;;12.79;71.96;100491.86;102374;1115;68797;-59
2021/06/11 01:22:15;;;;;;;7.20;6.10;;;;;;;12.64;72.06;100489.27;102380;1115;86205;-59
2021/06/11 01:24:31;;;;;;;6.60;6.00;;;;;;;12.55;72.32;100478.81;102356;1115;75248;-63
2021/06/11 01:26:42;;;;;;;8.00;6.50;;;;;;;12.52;72.24;100485.47;102402;1115;81713;-64
2021/06/11 01:28:51;;;;;;;7.10;6.00;;;;;;;12.48;72.48;100480.63;102381;1115;65560;-60
2021/06/11 01:31:03;;;;;;;8.90;6.60;;;;;;;12.52;72.44;100481.92;102402;1115;68210;-60
2021/06/11 01:33:11;;;;;;;7.60;6.20;;;;;;;12.48;72.63;100491.47;102399;1115;85377;-58
2021/06/11 01:35:23;;;;;;;7.70;5.90;;;;;;;12.50;72.52;100484.81;102436;1115;74344;-65
2021/06/11 01:37:33;;;;;;;7.00;5.80;;;;;;;12.50;72.78;100489.42;102399;1115;80990;-63
2021/06/11 01:39:42;;;;;;;7.10;5.90;;;;;;;12.49;72.78;100485.03;102360;1115;66757;-59
2021/06/11 01:41:52;;;;;;;7.50;6.30;;;;;;;12.44;73.02;100488.34;102403;1115;69405;-60
2021/06/11 01:43:59;;;;;;;6.50;5.90;;;;;;;12.41;72.92;100486.03;102431;1115;85525;-58
2021/06/11 01:46:09;;;;;;;6.70;5.30;;;;;;;12.40;73.21;100487.90;102409;1115;73571;-59
2021/06/11 01:48:17;;;;;;;6.00;5.40;;;;;;;12.39;73.07;100482.66;102404;1115;81105;-63
2021/06/11 01:50:28;;;;;;;6.20;5.60;;;;;;;12.34;73.23;100487.84;102378;1115;66010;-59
2021/06/11 01:52:37;;;;;;;7.60;5.40;;;;;;;12.36;73.29;100492.02;102365;1116;69689;-60
2021/06/11 01:54:46;;;;;;;7.70;5.60;;;;;;;12.35;73.38;100479.53;102514;1115;85455;-67
2021/06/11 01:56:57;;;;;;;6.70;5.70;;;;;;;12.36;73.69;100485.80;102467;1115;75503;-64
2021/06/11 01:59:05;;;;;;;6.30;5.60;;;;;;;12.34;73.76;100479.71;102464;1115;79953;-59
2021/06/11 02:01:13;;;;;;;8.90;5.50;;;;;;;12.35;73.74;100482.24;102457;1115;67915;-61
2021/06/11 02:03:23;;;;;;;5.90;5.20;;;;;;;12.33;73.78;100487.00;102489;1115;68422;-59
2021/06/11 02:05:30;;;;;;;6.10;5.40;;;;;;;12.35;73.70;100479.53;102484;1115;85191;-64
2021/06/11 02:07:39;;;;;;;5.70;5.10;;;;;;;12.35;73.94;100486.81;102473;1115;73893;-64
2021/06/11 02:09:48;;;;;;;6.30;5.30;;;;;;;12.32;74.04;100488.05;102490;1115;81622;-60
2021/06/11 02:11:56;;;;;;;6.10;5.00;;;;;;;12.29;73.83;100484.90;102442;1114;68623;-58
2021/06/11 02:14:04;;;;;;;6.00;5.10;;;;;;;12.29;74.16;100483.03;102472;1115;67868;-59
2021/06/11 02:16:13;;;;;;;7.70;5.40;;;;;;;12.30;74.05;100487.42;102455;1115;85521;-60
2021/06/11 02:18:21;;;;;;;6.50;5.40;;;;;;;12.32;74.02;100482.64;102443;1115;75329;-60
2021/06/11 02:20:30;;;;;;;6.50;5.80;;;;;;;12.33;74.05;100489.70;102464;1115;81350;-62
2021/06/11 02:22:40;;;;;;;5.50;5.00;;;;;;;12.31;73.98;100480.95;102474;1115;66432;-63
2021/06/11 02:24:50;;;;;;;7.70;6.00;;;;;;;12.31;74.15;100483.66;102482;1115;69457;-59
2021/06/11 02:26:58;;;;;;;5.90;5.30;;;;;;;12.34;74.13;100483.27;102396;1115;86169;-59
2021/06/11 02:29:06;;;;;;;10.80;5.30;;;;;;;12.31;74.14;100486.37;102481;1115;73847;-59
2021/06/11 02:31:13;;;;;;;6.50;5.90;;;;;;;12.29;74.16;100471.35;102436;1115;81524;-60
2021/06/11 02:33:25;;;;;;;6.90;6.20;;;;;;;12.30;74.14;100475.75;102460;1115;68097;-59
2021/06/11 02:35:32;;;;;;;7.10;5.60;;;;;;;12.19;74.14;100479.00;102519;1114;68121;-62
2021/06/11 02:37:40;;;;;;;6.70;6.10;;;;;;;12.18;74.35;100477.31;102462;1114;86861;-65
2021/06/11 02:39:47;;;;;;;6.30;5.70;;;;;;;12.15;74.38;100478.55;102521;1114;75124;-59
2021/06/11 02:42:00;;;;;;;6.10;5.50;;;;;;;12.10;74.51;100481.02;102449;1115;81658;-59
2021/06/11 02:44:11;;;;;;;7.30;6.50;;;;;;;12.11;74.78;100490.83;102489;1115;67070;-61
2021/06/11 02:46:26;;;;;;;6.20;5.60;;;;;;;12.17;74.82;100494.59;102459;1115;68090;-60
2021/06/11 02:48:38;;;;;;;7.10;6.20;;;;;;;12.25;74.77;100489.05;102491;1114;85100;-61
2021/06/11 02:50:53;;;;;;;6.90;6.20;;;;;;;12.31;74.78;100490.95;102477;1114;74453;-65
2021/06/11 02:53:06;;;;;;;7.70;5.70;;;;;;;12.31;74.60;100493.66;102437;1115;81263;-63
2021/06/11 02:55:14;;;;;;;;;;;;;;;12.31;74.58;100491.79;102448;1114;65387;-58
2021/06/11 02:57:32;;;;;;;7.90;6.70;;;;;;;12.29;74.73;100496.58;102502;1115;68634;-60
2021/06/11 02:59:46;;;;;;;7.90;6.40;;;;;;;12.27;74.60;100493.23;102436;1115;86649;-60
2021/06/11 03:01:59;;;;;;;6.90;6.20;;;;;;;12.29;74.89;100490.31;102468;1115;75648;-59
2021/06/11 03:04:10;;;;;;;7.60;6.80;;;;;;;12.33;74.74;100489.70;102447;1115;81352;-63
2021/06/11 03:06:22;;;;;;;8.20;6.40;;;;;;;12.38;74.86;100492.69;102473;1115;68612;-66
2021/06/11 03:08:41;;;;;;;8.60;7.00;;;;;;;12.46;74.94;100493.55;102488;1115;68947;-62
2021/06/11 03:10:57;;;;;;;9.40;7.70;;;;;;;12.59;74.95;100499.04;102487;1115;86069;-66
2021/06/11 03:13:05;;;;;;;8.40;7.30;;;;;;;12.71;74.97;100495.59;102444;1115;75218;-63
2021/06/11 03:15:17;;;;;;;8.30;7.20;;;;;;;12.80;75.08;100498.97;102466;1115;81011;-65
2021/06/11 03:17:28;;;;;;;9.00;6.90;;;;;;;12.86;74.88;100490.00;102482;1115;67955;-64
2021/06/11 03:19:38;;;;;;;8.70;7.50;;;;;;;12.95;74.80;100491.52;102483;1115;68616;-58
2021/06/11 03:21:51;;;;;;;7.90;7.10;;;;;;;13.06;74.59;100490.09;102422;1116;84928;-58
2021/06/11 03:24:04;;;;;;;9.90;7.10;;;;;;;13.12;74.53;100492.87;102477;1115;75252;-64
2021/06/11 03:26:14;;;;;;;9.40;7.20;;;;;;;13.14;74.58;100493.49;102462;1115;81907;-64
2021/06/11 03:28:25;;;;;;;8.20;7.30;;;;;;;13.27;74.45;100496.23;102458;1115;66943;-64
2021/06/11 03:30:33;;;;;;;8.00;6.90;;;;;;;13.49;74.21;100503.19;102471;1115;67418;-65
2021/06/11 03:32:46;;;;;;;8.50;7.70;;;;;;;13.64;74.03;100502.17;102440;1115;85840;-66
2021/06/11 03:35:01;;;;;;;8.30;7.00;;;;;;;13.74;73.98;100506.16;102458;1115;76035;-66
2021/06/11 03:37:13;;;;;;;7.90;6.80;;;;;;;14.01;73.86;100498.84;102440;1115;82189;-66
2021/06/11 03:39:28;;;;;;;7.90;6.70;;;;;;;14.34;73.67;100499.69;102453;1115;67594;-60
2021/06/11 03:41:40;;;;;;;8.00;6.80;;;;;;;15.02;73.61;100498.27;102499;1115;70018;-61
2021/06/11 03:43:49;;;;;;;8.10;6.60;;;;;;;16.29;72.67;100501.61;102468;1115;85972;-60
2021/06/11 03:45:57;;;;;;;8.30;6.30;;;;;;;16.91;71.31;100492.39;102505;1115;73961;-60
2021/06/11 03:48:06;;;;;;;9.60;6.60;;;;;;;17.58;70.52;100502.22;102469;1115;81599;-62
2021/06/11 03:50:17;;;;;;;9.60;6.20;;;;;;;18.16;69.35;100496.05;102452;1115;66423;-68
2021/06/11 03:52:28;;;;;;;7.20;6.40;;;;;;;18.58;68.02;100500.38;102496;1115;69910;-65
2021/06/11 03:54:42;;;;;;;7.00;6.30;;;;;;;18.49;67.51;100496.33;102482;1115;85970;-64
2021/06/11 03:56:54;;;;;;;7.60;6.40;;;;;;;18.52;66.21;100501.33;102478;1115;76105;-63
2021/06/11 03:59:02;;;;;;;7.50;6.80;;;;;;;17.99;65.95;100501.38;102462;1115;81305;-59
2021/06/11 04:01:15;;;;;;;7.70;6.30;;;;;;;17.54;66.02;100505.66;102458;1114;65083;-61
2021/06/11 04:03:23;;;;;;;8.70;6.60;;;;;;;17.10;66.44;100504.96;102460;1115;68593;-60
2021/06/11 04:05:30;;;;;;;7.60;6.60;;;;;;;17.30;67.20;100503.88;102456;1115;87080;-61
2021/06/11 04:07:44;;;;;;;7.80;7.00;;;;;;;17.93;66.27;100510.54;102474;1115;74826;-60
2021/06/11 04:09:57;;;;;;;7.90;7.10;;;;;;;17.97;65.70;100508.15;102471;1115;80025;-64
2021/06/11 04:12:12;;;;;;;7.40;6.30;;;;;;;17.89;65.56;100501.13;102481;1115;67038;-64
2021/06/11 04:14:31;;;;;;;7.50;6.70;;;;;;;18.02;65.49;100511.03;102521;1115;67803;-60
2021/06/11 04:16:43;;;;;;;7.40;6.50;;;;;;;18.26;65.29;100504.52;102476;1115;86131;-60
2021/06/11 04:18:54;;;;;;;9.40;7.10;;;;;;;18.35;64.90;100511.28;102472;1115;74763;-60
2021/06/11 04:21:03;;;;;;;7.30;6.60;;;;;;;18.97;65.04;100506.16;102520;1115;81745;-58
2021/06/11 04:23:12;;;;;;;7.30;6.30;;;;;;;19.50;64.08;100501.27;102445;1115;67003;-58
2021/06/11 04:25:20;;;;;;;7.60;6.80;;;;;;;20.31;63.14;100505.44;102442;1115;70141;-61
2021/06/11 04:27:28;;;;;;;6.70;6.10;;;;;;;20.56;62.02;100497.59;102459;1114;85726;-58
2021/06/11 04:29:36;;;;;;;7.10;6.50;;;;;;;20.85;61.50;100509.28;102515;1115;75437;-64
2021/06/11 04:31:50;;;;;;;8.30;7.10;;;;;;;21.18;60.61;100496.27;102483;1115;80824;-66
2021/06/11 04:33:59;;;;;;;6.80;6.10;;;;;;;20.99;59.59;100502.30;102441;1115;66215;-64
2021/06/11 04:36:08;;;;;;;11.20;6.50;;;;;;;20.47;59.66;100497.19;102502;1114;70300;-65
2021/06/11 04:38:16;;;;;;;8.00;6.30;;;;;;;20.37;59.98;100501.70;102485;1114;85312;-65
2021/06/11 04:40:24;;;;;;;7.20;5.80;;;;;;;20.44;59.76;100497.69;102459;1114;74675;-65
2021/06/11 04:42:33;;;;;;;8.50;5.70;;;;;;;20.60;59.46;100501.52;102472;1115;81674;-62
2021/06/11 04:44:40;;;;;;;7.00;6.00;;;;;;;20.35;59.36;100501.13;102497;1115;65377;-59
2021/06/11 04:46:50;;;;;;;6.40;5.80;;;;;;;20.27;59.71;100496.86;102510;1115;68606;-59
2021/06/11 04:48:58;;;;;;;7.80;5.20;;;;;;;20.57;59.26;100494.58;102484;1115;86105;-62
2021/06/11 04:51:08;;;;;;;4.80;4.20;;;;;;;20.70;58.12;100503.55;102479;1115;74504;-61
2021/06/11 04:53:16;;;;;;;5.50;4.90;;;;;;;20.35;58.39;100499.22;102485;1114;79901;-65
2021/06/11 04:55:27;;;;;;;5.60;5.00;;;;;;;19.99;58.83;100502.42;102488;1115;66598;-58
2021/06/11 04:57:34;;;;;;;7.40;5.10;;;;;;;19.80;59.17;100500.98;102473;1115;70157;-58
2021/06/11 04:59:41;;;;;;;6.60;4.80;;;;;;;19.80;59.04;100504.56;102484;1115;85112;-63
2021/06/11 05:01:48;;;;;;;6.80;4.80;;;;;;;20.04;59.91;100499.76;102479;1115;75472;-63
2021/06/11 05:03:55;;;;;;;5.50;4.60;;;;;;;20.53;58.86;100501.67;102453;1115;81777;-63
2021/06/11 05:06:04;;;;;;;7.70;4.90;;;;;;;20.56;59.01;100505.83;102507;1115;66373;-64
2021/06/11 05:08:11;;;;;;;9.60;5.00;;;;;;;21.21;58.43;100503.16;102509;1114;68138;-62
2021/06/11 05:10:18;;;;;;;5.20;4.70;;;;;;;21.26;58.24;100503.22;102440;1115;85451;-63
2021/06/11 05:12:26;;;;;;;5.70;3.90;;;;;;;21.25;57.38;100498.83;102486;1114;73747;-61
2021/06/11 05:14:33;;;;;;;6.10;4.70;;;;;;;20.91;57.45;100508.23;102485;1115;82629;-58
2021/06/11 05:16:40;;;;;;;7.70;4.60;;;;;;;20.63;57.79;100506.47;102448;1115;65780;-59
2021/06/11 05:18:47;;;;;;;5.60;4.40;;;;;;;20.17;57.90;100502.16;102449;1115;68857;-59
2021/06/11 05:20:55;;;;;;;5.80;4.30;;;;;;;19.93;58.44;100501.50;102478;1115;85674;-59
2021/06/11 05:23:05;;;;;;;4.40;3.80;;;;;;;19.94;59.07;100503.14;102513;1115;73184;-56
2021/06/11 05:25:14;;;;;;;6.00;4.30;;;;;;;20.52;59.46;100493.67;102440;1115;81953;-57
2021/06/11 05:27:21;;;;;;;6.20;4.10;;;;;;;21.06;57.66;100500.21;102484;1114;66840;-56
2021/06/11 05:29:29;;;;;;;5.50;4.20;;;;;;;21.05;57.21;100493.88;102461;1115;69320;-58
2021/06/11 05:31:36;;;;;;;5.00;4.20;;;;;;;21.15;56.73;100495.97;102443;1115;86200;-57
2021/06/11 05:33:43;;;;;;;4.60;3.80;;;;;;;20.96;56.60;100505.55;102491;1115;75947;-56
2021/06/11 05:35:50;;;;;;;5.10;4.00;;;;;;;20.74;56.84;100502.78;102469;1115;80306;-55
2021/06/11 05:38:00;;;;;;;6.90;4.30;;;;;;;20.60;57.20;100496.83;102465;1115;66542;-66
2021/06/11 05:40:11;;;;;;;5.70;4.00;;;;;;;20.45;57.16;100498.52;102477;1115;69126;-63
2021/06/11 05:42:18;;;;;;;6.70;4.20;;;;;;;20.51;56.80;100498.36;102488;1115;85078;-60
2021/06/11 05:44:25;;;;;;;6.10;4.20;;;;;;;20.43;56.96;100506.19;102508;1115;74930;-66
2021/06/11 05:46:33;;;;;;;5.50;4.20;;;;;;;20.79;56.74;100505.63;102477;1115;81709;-65
2021/06/11 05:48:42;;;;;;;5.50;4.20;;;;;;;20.89;56.52;100504.92;102479;1115;67922;-59
2021/06/11 05:50:50;;;;;;;5.30;4.40;;;;;;;20.77;56.69;100509.69;102521;1115;68649;-57
2021/06/11 05:52:57;;;;;;;14.70;5.60;;;;;;;20.79;56.54;100507.54;102474;1114;84448;-59
2021/06/11 05:55:06;;;;;;;6.50;4.60;;;;;;;21.03;56.79;100511.70;102481;1115;74950;-61
2021/06/11 05:57:13;;;;;;;6.70;4.20;;;;;;;21.82;56.63;100504.66;102464;1115;82226;-60
2021/06/11 05:59:20;;;;;;;6.60;4.40;;;;;;;22.49;55.40;100509.66;102493;1115;65384;-64
2021/06/11 06:01:27;;;;;;;8.70;4.20;;;;;;;23.40;54.60;100503.56;102486;1115;68777;-62
2021/06/11 06:03:35;;;;;;;9.90;4.20;;;;;;;24.17;52.34;100501.80;102481;1115;86044;-66
2021/06/11 06:05:42;;;;;;;10.60;4.30;;;;;;;23.94;52.28;100503.97;102489;1114;73320;-67
2021/06/11 06:07:49;;;;;;;11.00;4.70;;;;;;;23.62;51.43;100502.54;102462;1115;80487;-67
2021/06/11 06:09:59;;;;;;;12.10;5.10;;;;;;;23.48;51.80;100502.23;102471;1115;66994;-62
2021/06/11 06:12:09;;;;;;;9.60;5.00;;;;;;;23.14;51.87;100506.47;102479;1115;69490;-60
2021/06/11 06:14:16;;;;;;;15.70;5.50;;;;;;;23.21;51.15;100505.12;102485;1115;85577;-61
2021/06/11 06:16:24;;;;;;;13.40;5.30;;;;;;;23.31;50.90;100507.09;102480;1115;75092;-61
2021/06/11 06:18:38;;;;;;;17.70;5.60;;;;;;;23.42;51.61;100495.88;102454;1115;81834;-62
2021/06/11 06:20:46;;;;;;;18.10;5.60;;;;;;;23.73;50.79;100502.30;102463;1115;67138;-65
2021/06/11 06:22:53;;;;;;;15.10;6.10;;;;;;;24.36;50.70;100500.14;102472;1115;68556;-64
2021/06/11 06:25:01;;;;;;;17.50;6.00;;;;;;;25.10;50.02;100497.50;102513;1115;89793;-57
2021/06/11 06:27:09;;;;;;;8.90;5.80;;;;;;;25.24;48.60;100496.59;102520;1115;73695;-63
2021/06/11 06:29:19;;;;;;;8.50;4.80;;;;;;;25.21;47.85;100494.42;102484;1115;80754;-65
2021/06/11 06:31:31;;;;;;;13.30;5.70;;;;;;;24.64;47.75;100505.05;102459;1115;65354;-66
2021/06/11 06:33:38;;;;;;;10.10;4.20;;;;;;;24.42;48.51;100508.13;102468;1114;68659;-64
2021/06/11 06:35:46;;;;;;;7.50;4.30;;;;;;;24.23;48.59;100514.51;102485;1114;84482;-65
2021/06/11 06:37:53;;;;;;;7.20;3.90;;;;;;;23.98;48.47;100507.81;102472;1115;74221;-65
2021/06/11 06:40:04;;;;;;;8.30;3.80;;;;;;;23.89;49.04;100512.25;102459;1115;82644;-61
2021/06/11 06:42:12;;;;;;;5.50;3.30;;;;;;;23.79;48.53;100509.45;102486;1115;67834;-56
2021/06/11 06:44:19;;;;;;;3.50;3.00;;;;;;;23.57;49.10;100505.29;102457;1115;68163;-55
2021/06/11 06:46:27;;;;;;;8.40;3.60;;;;;;;23.48;49.37;100513.26;102459;1114;86102;-57
2021/06/11 06:48:35;;;;;;;5.30;3.60;;;;;;;23.42;49.54;100508.83;102504;1115;73555;-56
2021/06/11 06:50:42;;;;;;;6.80;3.60;;;;;;;23.36;49.72;100509.87;102481;1115;80860;-56
2021/06/11 06:52:53;;;;;;;7.60;3.30;;;;;;;23.27;50.14;100512.31;102374;1116;67499;-54
2021/06/11 06:55:03;;;;;;;5.70;3.70;;;;;;;23.36;50.24;100509.87;102517;1115;68338;-55
2021/06/11 06:57:11;;;;;;;6.40;3.80;;;;;;;24.05;50.08;100507.56;102487;1115;85747;-57
2021/06/11 06:59:21;;;;;;;5.80;3.40;;;;;;;24.45;49.44;100502.05;102506;1115;73569;-55
2021/06/11 07:01:29;;;;;;;8.20;3.40;;;;;;;25.83;48.25;100500.44;102467;1115;81867;-56
2021/06/11 07:03:36;;;;;;;7.70;3.60;;;;;;;26.77;46.07;100497.98;102468;1114;66534;-57
2021/06/11 07:05:44;;;;;;;3.80;3.20;;;;;;;26.40;45.70;100496.98;102390;1115;69125;-56
2021/06/11 07:07:54;;;;;;;8.20;3.40;;;;;;;26.15;45.39;100501.61;102464;1115;86026;-56
2021/06/11 07:10:01;;;;;;;6.90;3.60;;;;;;;26.29;45.69;100494.28;102503;1115;73564;-59
2021/06/11 07:12:10;;;;;;;7.60;4.40;;;;;;;26.64;44.72;100492.30;102429;1115;81242;-58
2021/06/11 07:14:18;;;;;;;6.30;3.60;;;;;;;27.85;43.13;100491.63;102464;1115;66428;-57
2021/06/11 07:16:25;;;;;;;5.80;3.50;;;;;;;29.14;41.99;100490.72;102444;1115;68759;-57
2021/06/11 07:18:33;;;;;;;5.30;3.00;;;;;;;28.50;40.03;100488.88;102463;1115;86305;-55
2021/06/11 07:20:40;;;;;;;7.50;3.80;;;;;;;28.61;41.12;100485.61;102399;1115;73656;-57
2021/06/11 07:22:47;;;;;;;5.70;3.20;;;;;;;29.43;39.96;100487.61;102375;1115;80819;-55
2021/06/11 07:24:55;;;;;;;5.00;3.30;;;;;;;29.59;39.23;100486.95;102441;1115;66196;-56
2021/06/11 07:27:04;;;;;;;4.60;3.20;;;;;;;29.44;38.55;100487.31;102453;1115;69332;-56
2021/06/11 07:29:11;;;;;;;6.10;3.40;;;;;;;29.14;39.26;100485.16;102484;1115;84579;-57
2021/06/11 07:31:18;;;;;;;4.80;3.10;;;;;;;29.29;39.49;100482.06;102460;1115;74171;-56
2021/06/11 07:33:28;;;;;;;7.70;3.20;;;;;;;28.95;38.81;100481.66;102465;1115;81504;-55
2021/06/11 07:35:38;;;;;;;6.40;2.90;;;;;;;27.86;39.61;100481.31;102462;1115;66511;-55
2021/06/11 07:37:46;;;;;;;6.30;4.10;;;;;;;27.45;40.80;100487.48;102465;1115;69113;-56
2021/06/11 07:39:53;;;;;;;4.70;2.40;;;;;;;27.77;40.19;100488.70;102450;1115;85515;-56
2021/06/11 07:42:01;;;;;;;7.50;2.90;;;;;;;28.46;39.64;100485.88;102495;1115;75343;-53
2021/06/11 07:44:08;;;;;;;4.50;2.40;;;;;;;29.25;39.07;100484.64;102448;1115;79822;-57
2021/06/11 07:46:16;;;;;;;7.10;2.90;;;;;;;29.92;37.04;100492.34;102480;1115;66536;-56
2021/06/11 07:48:23;;;;;;;6.30;3.10;;;;;;;30.29;36.71;100490.02;102464;1115;68850;-58
2021/06/11 07:50:33;;;;;;;6.10;3.30;;;;;;;30.39;36.75;100492.57;102464;1115;84484;-57
2021/06/11 07:52:40;;;;;;;3.50;2.60;;;;;;;31.07;36.92;100496.06;102472;1115;73962;-56
2021/06/11 07:54:47;;;;;;;5.30;2.60;;;;;;;31.90;34.65;100492.94;102442;1115;81761;-56
2021/06/11 07:56:57;;;;;;;4.10;2.10;;;;;;;31.67;34.81;100490.63;102467;1115;67071;-56
2021/06/11 07:59:07;;;;;;;4.10;2.00;;;;;;;31.89;34.48;100491.27;102521;1115;67739;-55
2021/06/11 08:01:14;;;;;;;5.30;2.70;;;;;;;31.18;33.63;100481.45;102463;1115;85658;-56
2021/06/11 08:03:22;;;;;;;5.20;2.50;;;;;;;29.79;34.44;100489.31;102465;1115;73485;-56
2021/06/11 08:05:29;;;;;;;4.60;2.20;;;;;;;28.75;34.58;100496.78;102454;1115;80270;-56
2021/06/11 08:07:37;;;;;;;4.50;2.00;;;;;;;27.69;35.57;100483.83;102475;1115;65324;-57
2021/06/11 08:09:44;;;;;;;7.40;2.20;;;;;;;27.10;36.61;100481.54;102468;1114;69351;-56
2021/06/11 08:11:51;;;;;;;11.50;2.80;;;;;;;26.67;37.36;100483.41;102461;1115;84617;-56
2021/06/11 08:14:01;;;;;;;2.90;2.10;;;;;;;26.23;37.72;100489.09;102434;1115;73994;-60
2021/06/11 08:16:08;;;;;;;4.60;2.10;;;;;;;25.89;38.37;100480.75;102459;1115;81460;-61
2021/06/11 08:18:16;;;;;;;4.30;2.00;;;;;;;25.67;39.89;100477.59;102463;1114;67029;-61
2021/06/11 08:20:26;;;;;;;3.60;2.10;;;;;;;26.24;40.29;100486.03;102474;1115;68280;-62
2021/06/11 08:22:33;;;;;;;4.00;2.00;;;;;;;27.06;39.69;100480.50;102481;1115;86208;-59
2021/06/11 08:24:41;;;;;;;4.60;2.00;;;;;;;27.40;39.46;100476.45;102523;1115;73980;-66
2021/06/11 08:26:48;;;;;;;3.90;1.90;;;;;;;27.42;39.04;100490.84;102479;1115;80640;-65
2021/06/11 08:28:55;;;;;;;2.80;2.10;;;;;;;26.97;38.34;100480.32;102485;1115;66873;-66
2021/06/11 08:31:02;;;;;;;5.00;2.10;;;;;;;26.67;37.78;100486.17;102488;1115;68701;-68
2021/06/11 08:33:09;;;;;;;4.60;2.00;;;;;;;26.52;37.97;100486.31;102475;1115;85356;-65
2021/06/11 08:35:17;;;;;;;2.50;1.80;;;;;;;26.42;38.78;100483.66;102469;1115;75479;-66
2021/06/11 08:37:25;;;;;;;5.80;1.80;;;;;;;26.29;38.88;100483.20;102504;1115;80714;-66
2021/06/11 08:39:32;;;;;;;5.80;2.20;;;;;;;26.03;38.82;100478.98;102454;1115;66756;-58
2021/06/11 08:41:40;;;;;;;2.90;1.90;;;;;;;25.61;38.86;100482.33;102466;1115;68237;-61
2021/06/11 08:43:50;;;;;;;1.90;1.60;;;;;;;25.46;39.29;100484.33;102454;1115;86293;-60
2021/06/11 08:45:59;;;;;;;4.00;1.80;;;;;;;25.23;39.55;100481.13;102506;1115;76170;-59
2021/06/11 08:48:07;;;;;;;2.70;1.40;;;;;;;25.23;39.78;100474.77;102455;1114;82155;-59
2021/06/11 08:50:17;;;;;;;4.20;1.80;;;;;;;25.26;40.24;100479.73;102481;1115;65225;-66
2021/06/11 08:52:25;;;;;;;4.20;1.90;;;;;;;25.23;40.00;100483.06;102477;1115;68385;-67
2021/06/11 08:54:35;;;;;;;2.60;1.60;;;;;;;25.19;40.25;100476.42;102448;1115;86092;-68
2021/06/11 08:56:46;;;;;;;3.00;1.70;;;;;;;25.31;40.67;100476.10;102474;1115;74997;-66
2021/06/11 08:58:53;;;;;;;4.20;2.00;;;;;;;25.35;39.85;100472.50;102495;1115;80798;-65
2021/06/11 09:01:01;;;;;;;4.60;1.70;;;;;;;25.20;40.25;100476.16;102461;1115;67934;-69
2021/06/11 09:03:17;;;;;;;4.80;1.90;;;;;;;25.34;40.33;100470.84;102496;1115;68769;-67
2021/06/11 09:05:25;;;;;;;4.10;1.70;;;;;;;25.25;40.72;100467.00;102505;1115;86040;-58
2021/06/11 09:07:34;;;;;;;6.20;1.50;;;;;;;25.23;40.96;100461.77;102488;1114;73514;-61
2021/06/11 09:09:52;;;;;;;4.60;1.90;;;;;;;25.17;40.51;100468.43;102497;1115;81890;-58
2021/06/11 09:11:59;;;;;;;2.30;1.40;;;;;;;25.09;40.35;100466.26;102450;1115;66661;-59
2021/06/11 09:14:09;;;;;;;2.50;2.00;;;;;;;25.14;40.45;100462.63;102459;1115;69122;-70
2021/06/11 09:16:19;;;;;;;6.20;1.90;;;;;;;25.31;41.10;100454.81;102466;1115;85893;-67
2021/06/11 09:18:30;;;;;;;3.40;1.90;;;;;;;25.43;40.71;100460.00;102475;1115;74382;-68
2021/06/11 09:20:41;;;;;;;6.90;1.60;;;;;;;25.58;40.85;100465.45;102467;1115;82132;-59
2021/06/11 09:22:52;;;;;;;2.40;1.60;;;;;;;25.39;40.15;100459.73;102442;1115;66438;-59
2021/06/11 09:25:43;;;;;;;3.80;1.70;;;;;;;25.40;40.25;100461.41;102590;1115;68139;-67
2021/06/11 09:27:55;;;;;;;7.50;2.60;;;;;;;25.34;40.48;100454.24;102464;1115;85440;-67
2021/06/11 09:30:03;;;;;;;2.30;1.70;;;;;;;25.34;40.56;100461.70;102514;1115;74022;-59
2021/06/11 09:32:18;;;;;;;3.50;1.70;;;;;;;25.04;39.72;100457.99;102387;1116;81032;-59
2021/06/11 09:34:28;;;;;;;3.80;1.60;;;;;;;24.95;40.88;100456.91;102493;1115;67691;-67
2021/06/11 09:36:35;;;;;;;5.30;2.30;;;;;;;24.91;40.47;100463.30;102497;1115;67472;-67
2021/06/11 09:38:47;;;;;;;5.80;1.80;;;;;;;24.85;40.41;100459.73;102482;1115;85752;-66
2021/06/11 09:41:11;;;;;;;1.90;1.60;;;;;;;24.72;40.53;100456.70;102471;1115;73565;-67
2021/06/11 09:43:19;;;;;;;2.00;1.50;;;;;;;24.55;40.06;100457.86;102470;1115;81679;-69
2021/06/11 09:45:26;;;;;;;5.10;1.60;;;;;;;24.41;40.71;100455.94;102455;1115;65861;-69
2021/06/11 09:47:36;;;;;;;3.60;1.90;;;;;;;24.25;40.49;100462.59;102482;1115;68157;-67
2021/06/11 09:49:45;;;;;;;2.50;1.70;;;;;;;24.21;41.12;100458.72;102525;1115;85436;-68
2021/06/11 09:52:09;;;;;;;3.30;2.10;;;;;;;24.12;41.03;100460.41;102406;1116;74484;-67
2021/06/11 09:54:30;;;;;;;4.50;1.90;;;;;;;24.01;41.74;100463.11;102502;1114;80635;-59